createdAt,value
2023-02-19T00:01:37.981Z,0.00
2023-02-19T00:04:10.934Z,0.00
2023-02-19T00:06:38.672Z,0.08
2023-02-19T00:09:06.045Z,0.00
2023-02-19T00:11:34.630Z,0.00
2023-02-19T00:14:02.956Z,0.00
2023-02-19T00:16:37.821Z,0.00
2023-02-19T00:19:06.581Z,0.00
2023-02-19T00:21:34.350Z,0.00
2023-02-19T00:24:05.822Z,0.00
2023-02-19T00:26:33.767Z,0.00
2023-02-19T00:29:01.678Z,0.00
2023-02-19T00:31:34.950Z,0.00
2023-02-19T00:34:05.630Z,0.00
2023-02-19T00:36:36.209Z,0.00
2023-02-19T00:39:04.354Z,0.15
2023-02-19T00:41:31.911Z,0.00
2023-02-19T00:44:00.298Z,0.00
2023-02-19T00:46:29.524Z,0.00
2023-02-19T00:48:56.959Z,0.00
2023-02-19T00:51:27.532Z,0.00
2023-02-19T00:53:55.352Z,0.00
2023-02-19T00:56:22.971Z,0.00
2023-02-19T00:58:50.716Z,0.00
2023-02-19T01:01:18.242Z,0.00
2023-02-19T01:03:45.622Z,0.00
2023-02-19T01:06:14.270Z,0.00
2023-02-19T01:08:41.645Z,0.00
2023-02-19T01:11:09.999Z,0.00
2023-02-19T01:13:37.856Z,0.10
2023-02-19T01:16:19.423Z,0.00
2023-02-19T01:18:47.826Z,0.30
2023-02-19T01:21:16.998Z,0.00
2023-02-19T01:23:44.462Z,0.00
2023-02-19T01:26:19.662Z,0.00
2023-02-19T01:28:48.443Z,0.00
2023-02-19T01:31:22.801Z,0.10
2023-02-19T01:33:53.115Z,0.00
2023-02-19T01:36:20.849Z,0.00
2023-02-19T01:38:48.443Z,0.00
2023-02-19T01:41:17.246Z,0.00
2023-02-19T01:43:56.630Z,0.00
2023-02-19T01:46:26.450Z,0.00
2023-02-19T01:48:54.783Z,0.00
2023-02-19T01:51:22.360Z,0.10
2023-02-19T01:53:53.523Z,0.00
2023-02-19T01:56:21.350Z,0.00
2023-02-19T01:58:48.909Z,0.00
2023-02-19T02:01:16.350Z,0.00
2023-02-19T02:03:45.865Z,0.00
2023-02-19T02:06:24.275Z,0.00
2023-02-19T02:09:14.907Z,0.00
2023-02-19T02:11:52.606Z,0.00
2023-02-19T02:14:22.384Z,0.00
2023-02-19T02:16:55.697Z,0.00
2023-02-19T02:19:44.669Z,0.00
2023-02-19T02:22:19.327Z,0.00
2023-02-19T02:25:18.600Z,0.10
2023-02-19T02:27:49.198Z,0.00
2023-02-19T02:30:27.350Z,0.13
2023-02-19T02:33:00.949Z,0.10
2023-02-19T02:35:33.623Z,0.00
2023-02-19T02:38:04.787Z,0.00
2023-02-19T02:40:32.454Z,0.00
2023-02-19T02:43:00.802Z,0.00
2023-02-19T02:45:35.582Z,0.00
2023-02-19T02:48:21.321Z,0.00
2023-02-19T02:50:54.720Z,0.00
2023-02-19T02:53:42.682Z,0.13
2023-02-19T02:56:10.906Z,0.53
2023-02-19T02:58:38.586Z,0.20
2023-02-19T03:01:37.084Z,0.10
2023-02-19T03:04:07.708Z,0.08
2023-02-19T03:06:36.168Z,0.22
2023-02-19T03:09:10.480Z,0.28
2023-02-19T03:11:58.067Z,0.00
2023-02-19T03:14:53.703Z,0.00
2023-02-19T03:17:43.957Z,0.10
2023-02-19T03:20:13.976Z,0.00
2023-02-19T03:22:43.467Z,0.00
2023-02-19T03:25:29.390Z,0.00
2023-02-19T03:27:58.382Z,0.00
2023-02-19T03:30:29.088Z,0.00
2023-02-19T03:32:59.087Z,0.00
2023-02-19T03:35:34.602Z,0.00
2023-02-19T03:38:10.793Z,0.00
2023-02-19T03:40:51.085Z,0.17
2023-02-19T03:43:20.789Z,0.47
2023-02-19T03:45:54.017Z,0.35
2023-02-19T03:48:24.220Z,0.08
2023-02-19T03:50:57.791Z,0.65
2023-02-19T03:53:28.618Z,0.30
2023-02-19T03:56:04.831Z,0.38
2023-02-19T03:59:04.321Z,0.28
2023-02-19T04:01:38.027Z,0.30
2023-02-19T04:04:09.256Z,0.80
2023-02-19T04:06:38.083Z,0.20
2023-02-19T04:09:07.696Z,0.60
2023-02-19T04:11:35.685Z,0.70
2023-02-19T04:14:18.848Z,0.17
2023-02-19T04:16:48.464Z,0.68
2023-02-19T04:19:19.393Z,0.63
2023-02-19T04:21:47.409Z,0.95
2023-02-19T04:24:17.293Z,0.13
2023-02-19T04:26:45.135Z,0.47
2023-02-19T04:29:14.980Z,0.03
2023-02-19T04:31:42.513Z,0.85
2023-02-19T04:34:09.961Z,0.40
2023-02-19T04:36:37.454Z,0.00
2023-02-19T04:39:04.941Z,0.25
2023-02-19T04:41:32.382Z,0.43
2023-02-19T04:43:59.778Z,0.70
2023-02-19T04:46:27.382Z,0.40
2023-02-19T04:48:54.916Z,1.70
2023-02-19T04:51:22.491Z,0.88
2023-02-19T04:53:49.971Z,0.38
2023-02-19T04:56:17.939Z,0.28
2023-02-19T04:58:45.990Z,1.48
2023-02-19T05:01:13.807Z,0.43
2023-02-19T05:03:41.424Z,1.83
2023-02-19T05:06:11.355Z,0.52
2023-02-19T05:08:39.170Z,0.82
2023-02-19T05:11:08.873Z,1.23
2023-02-19T05:13:36.552Z,1.73
2023-02-19T05:16:05.917Z,0.85
2023-02-19T05:18:33.479Z,1.25
2023-02-19T05:21:01.092Z,1.55
2023-02-19T05:23:28.853Z,0.70
2023-02-19T05:25:56.327Z,1.23
2023-02-19T05:28:28.807Z,0.68
2023-02-19T05:30:57.072Z,0.63
2023-02-19T05:33:25.995Z,1.55
2023-02-19T05:35:55.402Z,1.23
2023-02-19T05:38:23.740Z,0.75
2023-02-19T05:40:51.215Z,1.02
2023-02-19T05:43:18.641Z,1.92
2023-02-19T05:45:46.058Z,1.00
2023-02-19T05:48:13.502Z,0.95
2023-02-19T05:50:40.906Z,1.02
2023-02-19T05:53:08.336Z,0.55
2023-02-19T05:55:36.653Z,2.25
2023-02-19T05:58:04.212Z,1.23
2023-02-19T06:00:33.255Z,0.77
2023-02-19T06:05:30.314Z,1.25
2023-02-19T06:07:57.732Z,1.35
2023-02-19T06:10:25.111Z,2.50
2023-02-19T06:12:55.743Z,1.85
2023-02-19T06:15:23.274Z,2.08
2023-02-19T06:17:50.665Z,2.20
2023-02-19T06:20:18.154Z,0.93
2023-02-19T06:22:45.563Z,0.40
2023-02-19T06:25:12.937Z,1.85
2023-02-19T06:27:40.574Z,1.67
2023-02-19T06:30:08.674Z,2.08
2023-02-19T06:32:36.079Z,1.38
2023-02-19T06:35:03.683Z,3.75
2023-02-19T06:37:33.764Z,1.00
2023-02-19T06:40:01.127Z,1.63
2023-02-19T06:42:28.623Z,2.75
2023-02-19T06:44:56.040Z,1.55
2023-02-19T06:47:25.496Z,1.30
2023-02-19T06:49:53.040Z,1.40
2023-02-19T06:52:20.435Z,1.90
2023-02-19T06:54:47.886Z,1.33
2023-02-19T06:57:15.372Z,2.03
2023-02-19T06:59:42.776Z,0.63
2023-02-19T07:02:11.858Z,1.92
